Time;durP1;ratioP1;P1;durP2;ratioP2;P2;SDS_P1;SDS_P2;PMS_P1;PMS_P2;Temp;Humidity;BMP_temperature;BMP_pressure;BME280_temperature;BME280_humidity;BME280_pressure;Samples;Min_cycle;Max_cycle;Signal;HPM_P1;HPM_P2
2023/11/13 04:06:12;;;;;;;0.35;0.35;;;9.20;99.90;;;;;;5664144;23;20226;-64
2023/11/13 04:08:38;;;;;;;0.33;0.33;;;9.30;99.90;;;;;;4994742;28;20215;-64
2023/11/13 04:11:04;;;;;;;0.30;0.30;;;9.30;99.90;;;;;;4994990;28;20230;-63
2023/11/13 04:13:31;;;;;;;0.30;0.30;;;9.40;99.90;;;;;;4994835;28;20425;-64
2023/11/13 04:15:57;;;;;;;0.40;0.40;;;9.40;99.90;;;;;;4994395;28;20192;-62
2023/11/13 04:18:23;;;;;;;0.30;0.30;;;9.40;99.90;;;;;;4994691;28;20175;-64
2023/11/13 04:20:49;;;;;;;0.40;0.40;;;9.50;99.90;;;;;;4994251;28;20976;-63
2023/11/13 04:23:15;;;;;;;0.30;0.30;;;9.60;99.90;;;;;;4994348;28;20540;-64
2023/11/13 04:25:46;;;;;;;0.30;0.30;;;9.60;99.90;;;;;;4994222;28;20266;-64
2023/11/13 04:28:13;;;;;;;0.40;0.40;;;9.60;99.90;;;;;;4994634;28;20865;-63
2023/11/13 04:30:39;;;;;;;0.30;0.30;;;9.70;99.90;;;;;;4994669;28;20547;-63
2023/11/13 04:33:05;;;;;;;0.30;0.30;;;9.70;99.90;;;;;;4994776;28;20239;-63
2023/11/13 04:35:31;;;;;;;0.30;0.30;;;9.70;99.90;;;;;;4993153;28;20794;-63
2023/11/13 04:37:56;;;;;;;0.30;0.30;;;9.70;99.90;;;;;;4994506;28;20183;-63
2023/11/13 04:40:22;;;;;;;0.33;0.33;;;9.70;99.90;;;;;;4994476;28;20187;-64
2023/11/13 04:42:47;;;;;;;0.30;0.30;;;9.70;99.90;;;;;;4994448;28;20171;-64
2023/11/13 04:45:13;;;;;;;0.30;0.30;;;9.80;99.90;;;;;;4994073;28;20191;-64
2023/11/13 04:47:39;;;;;;;0.33;0.33;;;9.80;99.90;;;;;;4994430;28;20194;-63
2023/11/13 04:50:05;;;;;;;0.30;0.30;;;9.90;99.90;;;;;;4994188;28;20172;-65
2023/11/13 04:52:31;;;;;;;0.30;0.30;;;9.90;99.90;;;;;;4994285;28;20408;-64
2023/11/13 04:54:57;;;;;;;0.30;0.30;;;9.90;99.90;;;;;;4993768;28;20201;-63
2023/11/13 04:57:23;;;;;;;0.30;0.30;;;10.00;99.90;;;;;;4994037;28;20187;-64
2023/11/13 04:59:49;;;;;;;0.30;0.30;;;10.00;99.90;;;;;;4994243;28;20238;-64
2023/11/13 05:02:15;;;;;;;0.30;0.30;;;10.10;99.90;;;;;;4994212;28;20531;-64
2023/11/13 05:04:43;;;;;;;0.30;0.30;;;10.10;99.90;;;;;;4993726;28;20270;-65
2023/11/13 05:07:08;;;;;;;0.30;0.30;;;10.10;99.90;;;;;;4993918;28;20279;-63
2023/11/13 05:09:34;;;;;;;0.40;0.40;;;10.10;99.90;;;;;;4994011;28;20286;-64
2023/11/13 05:11:59;;;;;;;0.30;0.30;;;10.10;99.90;;;;;;4993959;28;20168;-64
2023/11/13 05:14:25;;;;;;;0.30;0.30;;;10.20;99.90;;;;;;4993542;28;20165;-64
2023/11/13 05:16:55;;;;;;;0.30;0.30;;;10.10;99.90;;;;;;4993831;28;20183;-65
2023/11/13 05:19:20;;;;;;;0.40;0.40;;;10.20;99.90;;;;;;4994011;28;20185;-64
2023/11/13 05:21:46;;;;;;;0.30;0.30;;;10.20;99.90;;;;;;4994042;28;20587;-65
2023/11/13 05:24:12;;;;;;;0.30;0.30;;;10.20;99.90;;;;;;4993556;28;20239;-65
2023/11/13 05:26:38;;;;;;;0.30;0.30;;;10.30;99.90;;;;;;4993844;28;20293;-64
2023/11/13 05:29:03;;;;;;;0.30;0.20;;;10.30;99.90;;;;;;4993878;28;20294;-63
2023/11/13 05:31:29;;;;;;;0.40;0.40;;;10.30;99.90;;;;;;4994014;28;20407;-64
2023/11/13 05:33:55;;;;;;;0.30;0.30;;;10.30;99.90;;;;;;4996064;28;20190;-64
2023/11/13 05:36:20;;;;;;;0.30;0.30;;;10.30;99.90;;;;;;4997667;28;20272;-64
2023/11/13 05:38:46;;;;;;;0.30;0.30;;;10.30;99.90;;;;;;4997772;28;20189;-64
2023/11/13 05:41:12;;;;;;;0.30;0.30;;;10.30;99.90;;;;;;4997598;28;20258;-65
2023/11/13 05:43:37;;;;;;;0.30;0.30;;;10.30;99.90;;;;;;4997550;28;20196;-64
2023/11/13 05:46:03;;;;;;;0.30;0.30;;;10.30;99.90;;;;;;4997296;28;20228;-64
2023/11/13 05:48:28;;;;;;;0.30;0.30;;;10.30;99.90;;;;;;4997409;28;20214;-64
2023/11/13 05:50:54;;;;;;;0.30;0.20;;;10.40;99.90;;;;;;4997622;28;20180;-62
2023/11/13 05:53:21;;;;;;;0.30;0.30;;;10.40;99.90;;;;;;4997465;28;20223;-64
2023/11/13 05:55:47;;;;;;;0.30;0.30;;;10.40;99.90;;;;;;4996930;28;20205;-64
2023/11/13 05:58:13;;;;;;;0.30;0.30;;;10.40;99.90;;;;;;4997506;28;20610;-63
2023/11/13 06:00:38;;;;;;;0.30;0.30;;;10.40;99.90;;;;;;4997463;28;20225;-64
2023/11/13 06:03:04;;;;;;;0.30;0.30;;;10.40;99.90;;;;;;4996993;28;20409;-63
2023/11/13 06:05:30;;;;;;;0.60;0.60;;;10.40;99.90;;;;;;4996782;28;20698;-63
2023/11/13 06:07:55;;;;;;;0.30;0.30;;;10.40;99.90;;;;;;4997128;28;20596;-64
2023/11/13 06:10:21;;;;;;;0.30;0.30;;;10.40;99.90;;;;;;4997246;28;20172;-62
2023/11/13 06:12:47;;;;;;;0.30;0.30;;;10.40;99.90;;;;;;4997086;28;20621;-65
2023/11/13 06:15:16;;;;;;;0.30;0.30;;;10.40;99.90;;;;;;4979304;28;20193;-66
2023/11/13 06:17:43;;;;;;;0.30;0.28;;;10.40;99.90;;;;;;4997058;28;20199;-63
2023/11/13 06:20:13;;;;;;;0.30;0.30;;;10.40;99.90;;;;;;4996958;28;20205;-63
2023/11/13 06:22:43;;;;;;;0.30;0.30;;;10.40;99.90;;;;;;4996841;28;20184;-64
2023/11/13 06:25:12;;;;;;;0.30;0.30;;;10.50;99.90;;;;;;4996446;28;20217;-64
2023/11/13 06:27:38;;;;;;;0.27;0.20;;;10.50;99.90;;;;;;4979142;28;20411;-62
2023/11/13 06:30:05;;;;;;;0.30;0.30;;;10.50;99.90;;;;;;4996763;28;20424;-62
2023/11/13 06:32:31;;;;;;;0.30;0.28;;;10.50;99.90;;;;;;4996651;28;20591;-64
2023/11/13 06:34:56;;;;;;;0.30;0.30;;;10.50;99.90;;;;;;4996154;28;20592;-64
2023/11/13 06:37:23;;;;;;;0.30;0.30;;;10.60;99.90;;;;;;4996590;28;20175;-64
2023/11/13 06:39:49;;;;;;;0.30;0.30;;;10.50;99.90;;;;;;4996753;28;20598;-63
2023/11/13 06:42:14;;;;;;;0.30;0.30;;;10.60;99.90;;;;;;4996672;28;20178;-63
2023/11/13 06:44:41;;;;;;;0.30;0.30;;;10.60;99.90;;;;;;4994729;28;20528;-63
2023/11/13 06:47:07;;;;;;;0.30;0.30;;;10.70;99.90;;;;;;4996466;28;20179;-66
2023/11/13 06:49:32;;;;;;;0.27;0.20;;;10.60;99.90;;;;;;4996386;28;20931;-63
2023/11/13 06:51:58;;;;;;;0.37;0.37;;;10.70;99.90;;;;;;4979016;28;20181;-64
2023/11/13 06:54:24;;;;;;;0.40;0.40;;;10.70;99.90;;;;;;4995962;28;20229;-64
2023/11/13 06:56:50;;;;;;;0.30;0.30;;;10.70;99.90;;;;;;4996166;28;20247;-64
2023/11/13 06:59:16;;;;;;;0.30;0.30;;;10.70;99.90;;;;;;4996192;28;20544;-64
2023/11/13 07:01:42;;;;;;;0.30;0.30;;;10.70;99.90;;;;;;4996132;28;20236;-60
2023/11/13 07:04:10;;;;;;;0.30;0.30;;;10.80;99.90;;;;;;4995683;28;20930;-61
2023/11/13 07:06:37;;;;;;;0.40;0.40;;;10.80;99.90;;;;;;4995938;28;20229;-62
2023/11/13 07:09:10;;;;;;;0.30;0.30;;;10.80;99.90;;;;;;4995701;28;20823;-64
2023/11/13 07:11:35;;;;;;;0.40;0.40;;;10.90;99.90;;;;;;4995752;28;20462;-64
2023/11/13 07:14:01;;;;;;;0.30;0.30;;;10.90;99.90;;;;;;4995525;28;20412;-64
2023/11/13 07:16:27;;;;;;;0.30;0.30;;;10.90;99.90;;;;;;4995974;28;20473;-63
2023/11/13 07:18:53;;;;;;;0.30;0.30;;;10.90;99.90;;;;;;4995842;28;20217;-63
2023/11/13 07:21:19;;;;;;;0.30;0.30;;;10.90;99.90;;;;;;4996128;28;20185;-63
2023/11/13 07:23:44;;;;;;;0.30;0.30;;;11.00;99.90;;;;;;4996009;28;20424;-61
2023/11/13 07:26:10;;;;;;;0.37;0.37;;;11.00;99.90;;;;;;4995610;28;20282;-65
2023/11/13 07:28:36;;;;;;;0.40;0.40;;;11.00;99.90;;;;;;4995711;28;20197;-65
2023/11/13 07:31:02;;;;;;;0.30;0.30;;;10.90;99.90;;;;;;4995746;28;20785;-63
2023/11/13 07:33:27;;;;;;;0.30;0.30;;;10.90;99.90;;;;;;4995036;28;20173;-64
2023/11/13 07:35:53;;;;;;;0.30;0.30;;;10.90;99.90;;;;;;4993268;28;20248;-63
2023/11/13 07:38:20;;;;;;;0.50;0.50;;;10.90;99.90;;;;;;4995376;28;20179;-64
2023/11/13 07:40:46;;;;;;;0.30;0.30;;;10.80;99.90;;;;;;4995618;28;20181;-66
2023/11/13 07:43:12;;;;;;;0.40;0.40;;;10.80;99.90;;;;;;4994466;28;20190;-65
2023/11/13 07:45:38;;;;;;;0.30;0.30;;;10.90;99.90;;;;;;4994967;28;20718;-62
2023/11/13 07:48:04;;;;;;;1.60;0.90;;;10.80;99.90;;;;;;4995182;28;20699;-65
2023/11/13 07:50:29;;;;;;;0.30;0.30;;;10.90;99.90;;;;;;4995197;28;20448;-66
2023/11/13 07:52:55;;;;;;;0.30;0.30;;;10.90;99.90;;;;;;4995203;28;20406;-63
2023/11/13 07:55:22;;;;;;;0.30;0.30;;;10.90;99.90;;;;;;4993116;28;20222;-63
2023/11/13 07:57:48;;;;;;;0.30;0.20;;;11.00;99.90;;;;;;4995282;28;20500;-64
2023/11/13 08:00:15;;;;;;;0.30;0.30;;;11.00;99.90;;;;;;4995060;28;20498;-64
2023/11/13 08:02:44;;;;;;;0.30;0.30;;;10.90;99.90;;;;;;4994847;28;20191;-63
2023/11/13 08:05:16;;;;;;;0.30;0.30;;;10.90;99.90;;;;;;4994795;28;20828;-61
2023/11/13 08:07:42;;;;;;;0.43;0.43;;;10.90;99.90;;;;;;4994935;28;20979;-62
2023/11/13 08:10:13;;;;;;;0.30;0.30;;;10.90;99.90;;;;;;4995174;28;20170;-63
2023/11/13 08:12:45;;;;;;;0.30;0.30;;;10.90;99.90;;;;;;4995007;28;20775;-64
2023/11/13 08:15:12;;;;;;;0.40;0.40;;;11.00;99.90;;;;;;4994267;28;20203;-64
2023/11/13 08:17:46;;;;;;;0.30;0.30;;;11.00;99.90;;;;;;4994884;28;20423;-64
2023/11/13 08:20:16;;;;;;;0.30;0.30;;;11.00;99.90;;;;;;4994683;28;20169;-63
2023/11/13 08:22:45;;;;;;;0.30;0.30;;;10.90;99.90;;;;;;4994885;28;20523;-64
2023/11/13 08:25:15;;;;;;;0.35;0.35;;;10.90;99.90;;;;;;4994209;28;20521;-63
2023/11/13 08:27:46;;;;;;;0.30;0.30;;;10.80;99.90;;;;;;4994654;28;20206;-63
2023/11/13 08:30:14;;;;;;;0.30;0.30;;;10.80;99.90;;;;;;4994522;28;20446;-63
2023/11/13 08:32:43;;;;;;;0.30;0.30;;;10.80;99.90;;;;;;4994444;28;20171;-63
2023/11/13 08:35:12;;;;;;;0.30;0.30;;;10.80;99.90;;;;;;4993997;28;20405;-62
2023/11/13 08:37:42;;;;;;;0.30;0.30;;;10.80;99.90;;;;;;4994481;28;20541;-67
2023/11/13 08:40:10;;;;;;;0.30;0.30;;;10.70;99.90;;;;;;4993265;28;20176;-63
2023/11/13 08:42:37;;;;;;;0.40;0.40;;;10.70;99.90;;;;;;4994351;28;20902;-63
2023/11/13 08:45:03;;;;;;;0.30;0.30;;;10.70;99.90;;;;;;4994066;28;20557;-64
2023/11/13 08:47:28;;;;;;;0.30;0.30;;;10.70;99.90;;;;;;4994410;28;20256;-64
2023/11/13 08:49:57;;;;;;;0.30;0.30;;;10.60;99.90;;;;;;4994325;28;20466;-64
2023/11/13 08:52:22;;;;;;;0.30;0.25;;;10.50;99.90;;;;;;4994244;28;20199;-65
2023/11/13 08:54:49;;;;;;;0.30;0.30;;;10.50;99.90;;;;;;4993602;28;20180;-65
2023/11/13 08:57:15;;;;;;;0.30;0.30;;;10.50;99.90;;;;;;4994192;28;20172;-63
2023/11/13 08:59:41;;;;;;;0.30;0.30;;;10.40;99.90;;;;;;4994443;28;20922;-65
2023/11/13 09:02:06;;;;;;;0.30;0.30;;;10.50;99.90;;;;;;4994025;28;20255;-64
2023/11/13 09:04:34;;;;;;;0.30;0.30;;;10.50;99.90;;;;;;4993752;28;20263;-64
2023/11/13 09:07:07;;;;;;;0.30;0.30;;;10.50;99.90;;;;;;4993274;28;20216;-65
2023/11/13 09:09:35;;;;;;;0.30;0.30;;;10.50;99.90;;;;;;4993570;28;20219;-64
2023/11/13 09:12:03;;;;;;;0.30;0.30;;;10.50;99.90;;;;;;4993880;28;20182;-64
2023/11/13 09:14:34;;;;;;;0.30;0.30;;;10.60;99.90;;;;;;4993626;28;20171;-64
2023/11/13 09:17:11;;;;;;;0.40;0.40;;;10.60;99.90;;;;;;4994075;28;20195;-65
2023/11/13 09:19:38;;;;;;;0.32;0.32;;;10.50;99.90;;;;;;4994104;28;20171;-65
2023/11/13 09:22:09;;;;;;;0.30;0.30;;;10.50;99.90;;;;;;4993937;28;20617;-66
2023/11/13 09:24:41;;;;;;;0.30;0.30;;;10.50;99.90;;;;;;4993566;28;20263;-63
2023/11/13 09:27:11;;;;;;;0.30;0.30;;;10.50;99.90;;;;;;4994045;28;20215;-63
2023/11/13 09:29:43;;;;;;;0.30;0.30;;;10.40;99.90;;;;;;4993864;28;20205;-64
2023/11/13 09:32:10;;;;;;;0.40;0.40;;;10.50;99.90;;;;;;4993756;28;20644;-63
2023/11/13 09:34:36;;;;;;;0.30;0.30;;;10.50;99.90;;;;;;4992280;28;20173;-64
2023/11/13 09:37:05;;;;;;;0.30;0.30;;;10.50;99.90;;;;;;4993771;28;20446;-63
2023/11/13 09:39:39;;;;;;;0.30;0.30;;;10.50;99.90;;;;;;4992459;28;20392;-65
2023/11/13 09:42:13;;;;;;;0.30;0.30;;;10.50;99.90;;;;;;4993992;28;20501;-65
2023/11/13 09:44:41;;;;;;;0.40;0.40;;;10.50;99.90;;;;;;4993350;28;20213;-67
2023/11/13 09:47:09;;;;;;;0.30;0.28;;;10.50;99.90;;;;;;4993862;28;21028;-66
2023/11/13 09:49:41;;;;;;;0.30;0.30;;;10.50;99.90;;;;;;4993335;28;20680;-67
2023/11/13 09:52:08;;;;;;;0.30;0.30;;;10.50;99.90;;;;;;4993515;28;20212;-63
2023/11/13 09:54:33;;;;;;;0.30;0.30;;;10.60;99.90;;;;;;4992861;28;20407;-66
2023/11/13 09:57:00;;;;;;;0.30;0.30;;;10.70;99.90;;;;;;4993183;28;20203;-64
2023/11/13 09:59:30;;;;;;;0.30;0.30;;;10.80;99.90;;;;;;4993563;28;20172;-64
2023/11/13 10:01:58;;;;;;;0.30;0.30;;;10.90;99.90;;;;;;4992349;28;20229;-64
2023/11/13 10:04:23;;;;;;;0.30;0.30;;;11.10;99.90;;;;;;4992003;28;20172;-63
2023/11/13 10:06:52;;;;;;;0.30;0.20;;;11.20;99.90;;;;;;4992174;28;20465;-65
2023/11/13 10:09:22;;;;;;;0.30;0.30;;;11.30;99.90;;;;;;4992207;28;20284;-65
2023/11/13 10:11:49;;;;;;;0.30;0.30;;;11.40;99.90;;;;;;4992130;28;20923;-64
2023/11/13 10:14:18;;;;;;;0.30;0.30;;;11.50;99.90;;;;;;4991889;28;20178;-64
2023/11/13 10:16:57;;;;;;;0.30;0.30;;;11.50;99.90;;;;;;4993039;28;20416;-63
2023/11/13 10:19:24;;;;;;;0.30;0.30;;;11.60;99.90;;;;;;4995118;28;20454;-63
2023/11/13 10:21:51;;;;;;;0.30;0.30;;;11.70;99.90;;;;;;4995621;28;20445;-64
2023/11/13 10:24:23;;;;;;;0.30;0.30;;;11.80;99.90;;;;;;4996568;28;20883;-64
2023/11/13 10:26:53;;;;;;;0.30;0.30;;;11.90;99.90;;;;;;4996789;28;20437;-63
2023/11/13 10:29:27;;;;;;;0.30;0.30;;;12.00;99.90;;;;;;4996764;28;20434;-64
2023/11/13 10:31:57;;;;;;;0.30;0.30;;;12.10;99.90;;;;;;4996695;28;20924;-64
2023/11/13 10:34:23;;;;;;;0.30;0.30;;;12.20;99.90;;;;;;4996776;28;20909;-64
2023/11/13 10:37:11;;;;;;;0.30;0.30;;;12.20;99.90;;;;;;4996493;28;20487;-65
2023/11/13 10:39:40;;;;;;;0.30;0.30;;;12.30;99.90;;;;;;4996822;28;20417;-64
2023/11/13 10:42:25;;;;;;;0.30;0.30;;;12.30;99.90;;;;;;4996305;28;20448;-63
2023/11/13 10:44:59;;;;;;;0.30;0.30;;;12.30;99.90;;;;;;4995984;28;20475;-64
2023/11/13 10:47:31;;;;;;;0.30;0.30;;;12.30;99.90;;;;;;4995173;28;20423;-63
2023/11/13 10:49:58;;;;;;;0.30;0.30;;;12.30;99.90;;;;;;4996230;28;20460;-63
2023/11/13 10:52:26;;;;;;;0.30;0.30;;;12.40;99.90;;;;;;4996236;28;20487;-64
2023/11/13 10:54:55;;;;;;;0.30;0.30;;;12.40;99.90;;;;;;4995981;28;20413;-64
2023/11/13 10:57:21;;;;;;;0.30;0.20;;;12.40;99.90;;;;;;4995144;28;20829;-63
2023/11/13 10:59:49;;;;;;;0.30;0.30;;;12.50;99.90;;;;;;4996048;28;20918;-65
2023/11/13 11:02:30;;;;;;;0.30;0.20;;;12.50;99.90;;;;;;4996344;28;20429;-64
2023/11/13 11:04:59;;;;;;;0.30;0.20;;;12.60;99.90;;;;;;4995767;28;20413;-64
2023/11/13 11:07:27;;;;;;;0.30;0.30;;;12.70;99.90;;;;;;4995863;28;20405;-64
2023/11/13 11:10:00;;;;;;;0.30;0.30;;;12.70;99.90;;;;;;4996054;28;20539;-64
2023/11/13 11:12:34;;;;;;;0.30;0.30;;;12.80;99.90;;;;;;4996239;28;20453;-64
2023/11/13 11:15:22;;;;;;;0.33;0.33;;;12.80;99.90;;;;;;4995669;28;20845;-63
2023/11/13 11:18:12;;;;;;;0.30;0.20;;;12.90;99.90;;;;;;4995990;28;20422;-64
2023/11/13 11:20:48;;;;;;;0.30;0.30;;;12.90;99.90;;;;;;4995792;28;20418;-64
2023/11/13 11:23:22;;;;;;;0.30;0.30;;;12.90;99.90;;;;;;4996270;28;20480;-64
2023/11/13 11:25:51;;;;;;;0.33;0.33;;;13.00;99.90;;;;;;4994395;28;20513;-63
2023/11/13 11:28:44;;;;;;;0.30;0.30;;;13.00;99.90;;;;;;4995938;28;20450;-67
2023/11/13 11:31:38;;;;;;;0.30;0.20;;;13.00;99.90;;;;;;4995669;28;20493;-64
2023/11/13 11:34:07;;;;;;;0.30;0.30;;;13.00;99.90;;;;;;4995254;28;20472;-62
2023/11/13 11:36:37;;;;;;;0.30;0.30;;;13.00;99.90;;;;;;4995275;28;20430;-66
2023/11/13 11:39:13;;;;;;;0.30;0.30;;;13.00;99.90;;;;;;4994989;28;20753;-63
2023/11/13 11:41:41;;;;;;;0.30;0.20;;;13.10;99.90;;;;;;4995313;28;20886;-63
2023/11/13 11:44:11;;;;;;;0.30;0.30;;;13.00;99.90;;;;;;4995031;28;20445;-63
2023/11/13 11:46:56;;;;;;;0.30;0.20;;;13.10;99.90;;;;;;4995350;28;20429;-63
2023/11/13 11:49:25;;;;;;;0.30;0.30;;;13.20;99.90;;;;;;4995227;28;20465;-64
2023/11/13 11:51:56;;;;;;;0.30;0.30;;;13.20;99.90;;;;;;4995316;28;20413;-65
2023/11/13 11:54:22;;;;;;;0.30;0.30;;;13.30;99.90;;;;;;4994793;28;20421;-64
2023/11/13 11:57:01;;;;;;;0.30;0.30;;;13.30;99.90;;;;;;4993671;28;20573;-64
2023/11/13 11:59:30;;;;;;;0.50;0.47;;;13.40;99.90;;;;;;4994883;28;20422;-63
2023/11/13 12:01:57;;;;;;;0.30;0.30;;;13.40;99.90;;;;;;4995042;28;20413;-64
2023/11/13 12:04:23;;;;;;;0.33;0.33;;;13.50;99.90;;;;;;4994485;28;20461;-63
2023/11/13 12:06:50;;;;;;;0.30;0.30;;;13.50;99.90;;;;;;4994491;28;20501;-63
2023/11/13 12:09:19;;;;;;;0.30;0.30;;;13.60;99.90;;;;;;4994873;28;20230;-63
2023/11/13 12:11:52;;;;;;;0.30;0.30;;;13.60;99.90;;;;;;4994970;28;20420;-64
2023/11/13 12:14:18;;;;;;;0.30;0.30;;;13.60;99.90;;;;;;4994458;28;20429;-63
2023/11/13 12:16:44;;;;;;;0.30;0.30;;;13.60;99.90;;;;;;4994715;28;20474;-63
2023/11/13 12:19:11;;;;;;;0.30;0.30;;;13.70;99.90;;;;;;4994831;28;20765;-63
2023/11/13 12:21:41;;;;;;;0.93;0.93;;;13.70;99.90;;;;;;4994502;28;20498;-62
2023/11/13 12:24:08;;;;;;;0.30;0.30;;;13.70;99.90;;;;;;4994286;28;20505;-63
2023/11/13 12:26:36;;;;;;;0.40;0.40;;;13.80;99.90;;;;;;4994497;28;20437;-63
2023/11/13 12:29:14;;;;;;;0.30;0.20;;;13.90;99.90;;;;;;4994547;28;20504;-63
2023/11/13 12:31:41;;;;;;;0.30;0.30;;;13.90;99.90;;;;;;4994532;28;20406;-63
2023/11/13 12:34:07;;;;;;;0.30;0.30;;;14.00;99.90;;;;;;4994008;28;20771;-62
2023/11/13 12:36:33;;;;;;;0.30;0.30;;;14.00;99.90;;;;;;4994492;28;20401;-63
2023/11/13 12:39:04;;;;;;;0.30;0.30;;;14.10;99.90;;;;;;4994603;28;20417;-63
2023/11/13 12:41:30;;;;;;;0.30;0.20;;;14.10;99.90;;;;;;4994501;28;20389;-63
2023/11/13 12:43:56;;;;;;;0.30;0.30;;;14.10;99.90;;;;;;4993407;28;20402;-61
2023/11/13 12:46:28;;;;;;;0.30;0.30;;;14.20;99.90;;;;;;4994362;28;20802;-61
2023/11/13 12:49:02;;;;;;;0.37;0.37;;;14.20;99.90;;;;;;4994422;28;20462;-61
2023/11/13 12:51:29;;;;;;;0.30;0.20;;;14.20;99.90;;;;;;4994486;28;20414;-63
2023/11/13 12:53:58;;;;;;;0.30;0.30;;;14.30;99.90;;;;;;4993980;28;20416;-63
2023/11/13 12:56:24;;;;;;;0.30;0.30;;;14.30;99.90;;;;;;4994166;28;20439;-64
2023/11/13 12:58:50;;;;;;;0.30;0.30;;;14.30;99.90;;;;;;4993728;28;20412;-63
2023/11/13 13:01:18;;;;;;;0.30;0.30;;;14.30;99.90;;;;;;4993688;28;20514;-61
2023/11/13 13:03:45;;;;;;;0.30;0.30;;;14.30;99.90;;;;;;4993977;28;20414;-62
2023/11/13 13:06:12;;;;;;;0.30;0.30;;;14.30;99.90;;;;;;4993465;28;20432;-65
2023/11/13 13:08:37;;;;;;;0.30;0.30;;;14.30;99.90;;;;;;4993865;28;20470;-62
2023/11/13 13:11:05;;;;;;;0.30;0.30;;;14.20;99.90;;;;;;4993579;28;20829;-63
2023/11/13 13:13:31;;;;;;;0.30;0.30;;;14.30;99.90;;;;;;4993722;28;20262;-64
2023/11/13 13:15:57;;;;;;;0.70;0.40;;;14.20;99.90;;;;;;4993588;28;20884;-63
2023/11/13 13:18:25;;;;;;;0.30;0.30;;;14.30;99.90;;;;;;4992387;28;20175;-62
2023/11/13 13:20:50;;;;;;;0.30;0.30;;;14.30;99.90;;;;;;4992689;28;20811;-62
2023/11/13 13:23:16;;;;;;;0.30;0.30;;;14.40;99.90;;;;;;4993827;28;20430;-62
2023/11/13 13:25:42;;;;;;;0.30;0.20;;;14.40;99.90;;;;;;4993583;28;20199;-62
2023/11/13 13:28:09;;;;;;;0.30;0.30;;;14.50;99.90;;;;;;4993514;28;20845;-62
2023/11/13 13:30:38;;;;;;;1.20;1.17;;;14.50;99.90;;;;;;4993632;28;20274;-63
2023/11/13 13:33:16;;;;;;;0.30;0.30;;;14.60;99.90;;;;;;4993873;28;20484;-63
2023/11/13 13:35:44;;;;;;;0.30;0.30;;;14.60;99.90;;;;;;4992965;28;20463;-62
2023/11/13 13:38:10;;;;;;;0.30;0.20;;;14.60;99.90;;;;;;4993447;28;20474;-63
2023/11/13 13:40:41;;;;;;;0.30;0.30;;;14.60;99.90;;;;;;4993788;28;20414;-62
2023/11/13 13:43:07;;;;;;;0.30;0.30;;;14.70;99.90;;;;;;4992979;28;20393;-63
2023/11/13 13:45:33;;;;;;;0.30;0.30;;;14.70;99.90;;;;;;4991549;28;20442;-63
2023/11/13 13:48:01;;;;;;;0.30;0.30;;;14.70;99.90;;;;;;4992435;28;20418;-63
2023/11/13 13:50:32;;;;;;;0.30;0.30;;;14.70;99.90;;;;;;4992915;28;20326;-63
2023/11/13 13:53:00;;;;;;;0.30;0.30;;;14.70;99.90;;;;;;4993734;28;20385;-63
2023/11/13 13:55:27;;;;;;;0.30;0.30;;;14.70;99.90;;;;;;4996589;28;20430;-63
2023/11/13 13:57:54;;;;;;;0.30;0.30;;;14.70;99.90;;;;;;4997440;28;20410;-64
2023/11/13 14:00:23;;;;;;;0.30;0.30;;;14.70;99.90;;;;;;4997499;28;20771;-63
2023/11/13 14:02:53;;;;;;;0.30;0.30;;;14.70;99.90;;;;;;4997394;28;20422;-63
2023/11/13 14:05:20;;;;;;;0.30;0.30;;;14.70;99.90;;;;;;4996723;28;20929;-63
2023/11/13 14:07:47;;;;;;;0.30;0.20;;;14.80;99.90;;;;;;4997082;28;20441;-63
2023/11/13 14:10:14;;;;;;;0.37;0.37;;;14.80;99.90;;;;;;4997019;28;20985;-63
2023/11/13 14:12:39;;;;;;;0.30;0.30;;;14.90;99.90;;;;;;4997101;28;20419;-63
2023/11/13 14:15:10;;;;;;;0.30;0.20;;;14.90;99.90;;;;;;4996698;28;20514;-63
2023/11/13 14:17:40;;;;;;;0.30;0.30;;;14.90;99.90;;;;;;4995910;28;20373;-63
2023/11/13 14:20:16;;;;;;;0.30;0.30;;;14.90;99.90;;;;;;4997047;28;20811;-63
2023/11/13 14:22:47;;;;;;;0.30;0.30;;;15.00;99.90;;;;;;4990445;28;20573;-63
2023/11/13 14:25:17;;;;;;;0.30;0.20;;;15.00;99.90;;;;;;4996263;28;20431;-63
2023/11/13 14:27:50;;;;;;;0.30;0.30;;;15.10;99.90;;;;;;4996529;28;20427;-63
2023/11/13 14:30:25;;;;;;;0.30;0.27;;;15.10;99.90;;;;;;4996786;28;20810;-64
2023/11/13 14:32:55;;;;;;;0.30;0.30;;;15.10;99.90;;;;;;4996539;28;20428;-63
2023/11/13 14:35:22;;;;;;;0.30;0.20;;;15.00;99.90;;;;;;4996303;28;20469;-64
2023/11/13 14:37:48;;;;;;;0.40;0.40;;;15.10;99.90;;;;;;4996705;28;20758;-64
2023/11/13 14:40:15;;;;;;;0.30;0.20;;;15.00;99.90;;;;;;4996504;28;20395;-63
2023/11/13 14:42:45;;;;;;;0.30;0.20;;;15.00;99.90;;;;;;4996225;28;20266;-63
2023/11/13 14:45:16;;;;;;;0.30;0.20;;;15.00;99.90;;;;;;4996105;28;20426;-63
2023/11/13 14:47:44;;;;;;;0.30;0.30;;;15.00;99.90;;;;;;4996938;28;20370;-63
2023/11/13 14:50:11;;;;;;;0.30;0.20;;;14.90;99.90;;;;;;4996268;28;20437;-63
2023/11/13 14:52:47;;;;;;;0.40;0.40;;;14.90;99.90;;;;;;4996475;28;20877;-64
2023/11/13 14:55:13;;;;;;;0.30;0.20;;;14.90;99.90;;;;;;4996230;28;20460;-63
2023/11/13 14:57:41;;;;;;;0.30;0.30;;;14.90;99.90;;;;;;4996463;28;20404;-64
2023/11/13 15:00:07;;;;;;;0.30;0.30;;;14.80;99.90;;;;;;4996362;28;20494;-63
2023/11/13 15:02:33;;;;;;;0.30;0.30;;;14.80;99.90;;;;;;4996316;28;20792;-63
2023/11/13 15:04:59;;;;;;;0.30;0.20;;;14.80;99.90;;;;;;4995448;28;20472;-64
2023/11/13 15:07:24;;;;;;;0.30;0.30;;;14.80;99.90;;;;;;4995575;28;20455;-64
2023/11/13 15:09:50;;;;;;;0.30;0.30;;;14.80;99.90;;;;;;4995903;28;20261;-64
2023/11/13 15:12:16;;;;;;;0.30;0.30;;;14.80;99.90;;;;;;4978376;28;20172;-64
2023/11/13 15:14:43;;;;;;;0.30;0.30;;;14.70;99.90;;;;;;4995600;28;20198;-64
2023/11/13 15:17:09;;;;;;;0.30;0.20;;;14.70;99.90;;;;;;4995739;28;20386;-64
2023/11/13 15:19:36;;;;;;;0.30;0.30;;;14.70;99.90;;;;;;4995817;28;20392;-64
2023/11/13 15:22:02;;;;;;;0.30;0.30;;;14.70;99.90;;;;;;4995924;28;20393;-63
2023/11/13 15:24:28;;;;;;;0.30;0.20;;;14.70;99.90;;;;;;4995891;28;20407;-64
2023/11/13 15:26:54;;;;;;;0.30;0.30;;;14.70;99.90;;;;;;4995781;28;20424;-64
2023/11/13 15:29:24;;;;;;;0.30;0.20;;;14.70;99.90;;;;;;4995442;28;20468;-64
2023/11/13 15:31:49;;;;;;;0.30;0.30;;;14.70;99.90;;;;;;4995916;28;20406;-64
2023/11/13 15:34:15;;;;;;;0.40;0.40;;;14.70;99.90;;;;;;4995414;28;20889;-64
2023/11/13 15:36:42;;;;;;;0.40;0.40;;;14.70;99.90;;;;;;4994978;28;20198;-64
2023/11/13 15:39:08;;;;;;;0.30;0.30;;;14.70;99.90;;;;;;4995362;28;20262;-65
2023/11/13 15:41:35;;;;;;;0.30;0.30;;;14.70;99.90;;;;;;4978066;28;20432;-64
2023/11/13 15:44:01;;;;;;;0.30;0.30;;;14.80;99.90;;;;;;4994911;28;20422;-64
2023/11/13 15:46:28;;;;;;;0.30;0.30;;;14.80;99.90;;;;;;4995186;28;20473;-63
2023/11/13 15:48:54;;;;;;;0.30;0.30;;;14.80;99.90;;;;;;4995241;28;20505;-63
2023/11/13 15:51:20;;;;;;;0.30;0.30;;;14.80;99.90;;;;;;4995104;28;20385;-63
2023/11/13 15:53:46;;;;;;;0.30;0.30;;;14.90;99.90;;;;;;4994969;28;20547;-64
2023/11/13 15:56:11;;;;;;;0.30;0.30;;;14.90;99.90;;;;;;4994984;28;20338;-64
2023/11/13 15:58:37;;;;;;;0.40;0.40;;;15.00;99.90;;;;;;4977676;28;20310;-65
2023/11/13 16:01:07;;;;;;;0.30;0.20;;;15.00;99.90;;;;;;4995347;28;20470;-64
2023/11/13 16:03:33;;;;;;;0.30;0.30;;;15.00;99.90;;;;;;4994946;28;20254;-65
2023/11/13 16:06:03;;;;;;;0.30;0.30;;;15.00;99.90;;;;;;4994207;28;20426;-65
2023/11/13 16:08:29;;;;;;;0.30;0.30;;;15.00;99.90;;;;;;4994887;28;20446;-64
2023/11/13 16:10:55;;;;;;;0.30;0.20;;;15.00;99.90;;;;;;4994882;28;20403;-63
2023/11/13 16:13:21;;;;;;;0.30;0.30;;;14.90;99.90;;;;;;4994639;28;20410;-63
2023/11/13 16:15:46;;;;;;;0.33;0.33;;;15.00;99.90;;;;;;4994155;28;20426;-64
2023/11/13 16:18:12;;;;;;;0.30;0.30;;;15.00;99.90;;;;;;4994789;28;20176;-64
2023/11/13 16:20:38;;;;;;;0.30;0.30;;;14.90;99.90;;;;;;4994623;28;20255;-63
2023/11/13 16:23:03;;;;;;;0.30;0.20;;;14.90;99.90;;;;;;4994575;28;20254;-64
2023/11/13 16:25:29;;;;;;;0.30;0.20;;;14.80;99.90;;;;;;4994193;28;20695;-65
2023/11/13 16:27:55;;;;;;;0.33;0.33;;;14.80;99.90;;;;;;4994445;28;20647;-64
2023/11/13 16:30:25;;;;;;;0.30;0.30;;;14.80;99.90;;;;;;4994698;28;20440;-65
2023/11/13 16:32:50;;;;;;;0.30;0.30;;;14.80;99.90;;;;;;4994314;28;20250;-65
2023/11/13 16:35:16;;;;;;;0.30;0.30;;;14.90;99.90;;;;;;4994214;28;20615;-63
2023/11/13 16:37:41;;;;;;;0.30;0.20;;;14.90;99.90;;;;;;4994594;28;20190;-63
2023/11/13 16:40:09;;;;;;;0.30;0.30;;;14.90;99.90;;;;;;4994170;28;20164;-64
2023/11/13 16:42:36;;;;;;;0.30;0.30;;;14.90;99.90;;;;;;4993890;28;20168;-64
2023/11/13 16:45:04;;;;;;;0.30;0.30;;;15.00;99.90;;;;;;4993625;28;20528;-62
2023/11/13 16:47:31;;;;;;;0.40;0.40;;;15.00;99.90;;;;;;4993756;28;20385;-64
2023/11/13 16:49:57;;;;;;;0.30;0.30;;;15.00;99.90;;;;;;4976554;28;20462;-62
2023/11/13 16:52:22;;;;;;;0.30;0.30;;;15.10;99.90;;;;;;4994127;28;20862;-64
2023/11/13 16:54:48;;;;;;;0.30;0.30;;;15.20;99.90;;;;;;4993554;28;20662;-62
2023/11/13 16:57:13;;;;;;;0.30;0.30;;;15.20;99.90;;;;;;4994170;28;20258;-64